»·PEaware :: AAL90 KJAC-KHLN

AAL90 :: KJAC-KHLN

FLIGHT INFORMATION

Flight Status: Arrived
Operator:
American Airlines
More flights by this operator :: More flights under this callsign
Pilot: Brad B. (8715)
Aircraft: BOEING 737-800
(B738)
More flights by this aircraft type
Origin: KJAC Jackson Hole
United States
Destination: KHLN Helena Regl
United States
More flights between these airports :: More routes between these airports
Route: +GEYSR5 NALSI DBS V343 BZN HLN
File this flight plan on PilotEdge
Remarks:
Altitude:
(Current/Filed)
30,000ft
Speed:
(Current/Filed)
453kts
Departed: 12-Jun-18 07:59 AM
Arrived: 12-Jun-18 08:48 AM
Distance/Time
Traveled:
187nm/0:49
Distance/Time
To Go:
Arrived

Flight Plot

Page will automatically refresh every two minutes.

Flight plan parsing failed; only flown route is shown


Map Options




Map Legend


Flown Route
Filed Route
Departure Airport
Arrival Airport
Navaid (VOR, NDB)
Fix

Horizontal Profiles

Position Reports

Time Latitude Longitude Heading Altitude Ground
Speed
12-Jun-18 07:38 43.604552 -110.735924 109 6459ft 0kts
12-Jun-18 07:39 43.604552 -110.735924 109 6459ft 0kts
12-Jun-18 07:40 43.604552 -110.735924 109 6459ft 0kts
12-Jun-18 07:41 43.604552 -110.735924 109 6459ft 0kts
12-Jun-18 07:42 43.604552 -110.735924 109 6459ft 0kts
12-Jun-18 07:43 43.604552 -110.735924 109 6459ft 0kts
12-Jun-18 07:44 43.604552 -110.735924 109 6459ft 0kts
12-Jun-18 07:45 43.604552 -110.735924 109 6459ft 0kts
12-Jun-18 07:46 43.604552 -110.735924 109 6459ft 0kts
12-Jun-18 07:47 43.604552 -110.735924 109 6459ft 0kts
12-Jun-18 07:48 43.604552 -110.735924 109 6459ft 0kts
12-Jun-18 07:49 43.604552 -110.735924 109 6459ft 0kts
12-Jun-18 07:50 43.604552 -110.735924 109 6459ft 0kts
12-Jun-18 07:51 43.604552 -110.735924 109 6459ft 0kts
12-Jun-18 07:52 43.604552 -110.735924 109 6459ft 0kts
12-Jun-18 07:53 43.604713 -110.736424 138 6459ft 2kts
12-Jun-18 07:54 43.604898 -110.736526 179 6459ft 0kts
12-Jun-18 07:55 43.604894 -110.736526 179 6459ft 0kts
12-Jun-18 07:56 43.604371 -110.737387 211 6459ft 8kts
12-Jun-18 07:57 43.599633 -110.739828 225 6459ft 12kts
12-Jun-18 07:58 43.600224 -110.741224 22 6459ft 0kts
12-Jun-18 07:59 43.631357 -110.726209 20 7594ft 187kts
12-Jun-18 08:00 43.682826 -110.688456 47 9817ft 240kts
12-Jun-18 08:01 43.745206 -110.630666 23 11984ft 315kts
12-Jun-18 08:02 43.834842 -110.577147 356 14031ft 375kts
12-Jun-18 08:03 43.910334 -110.651196 284 17770ft 347kts
12-Jun-18 08:04 43.918015 -110.787877 275 20708ft 363kts
12-Jun-18 08:05 43.928811 -110.929828 278 23144ft 377kts
12-Jun-18 08:06 43.946106 -111.076077 280 25239ft 390kts
12-Jun-18 08:07 43.965489 -111.225852 280 27091ft 400kts
12-Jun-18 08:08 43.985065 -111.379365 279 28789ft 406kts
12-Jun-18 08:09 44.004432 -111.532354 280 30322ft 400kts
12-Jun-18 08:10 44.023890 -111.683024 279 30324ft 395kts
12-Jun-18 08:11 44.043093 -111.833685 279 30319ft 397kts
12-Jun-18 08:12 44.061845 -111.985422 279 30318ft 397kts
12-Jun-18 08:13 44.099100 -112.126829 314 30317ft 410kts
12-Jun-18 08:14 44.213974 -112.148477 14 30314ft 472kts
12-Jun-18 08:15 44.332300 -112.063323 17 30311ft 476kts
12-Jun-18 08:16 44.452576 -111.988873 15 30312ft 473kts
12-Jun-18 08:17 44.573288 -111.915158 14 30310ft 473kts
12-Jun-18 08:18 44.693985 -111.841077 14 30308ft 472kts
12-Jun-18 08:19 44.814066 -111.766824 14 30309ft 471kts
12-Jun-18 08:20 44.934201 -111.692458 13 30311ft 469kts
12-Jun-18 08:21 45.053471 -111.618194 13 30315ft 468kts
12-Jun-18 08:22 45.172382 -111.543640 13 30317ft 467kts
12-Jun-18 08:23 45.291324 -111.468998 13 30316ft 466kts
12-Jun-18 08:24 45.409517 -111.394220 13 30308ft 465kts
12-Jun-18 08:25 45.519947 -111.324146 12 30292ft 447kts
12-Jun-18 08:26 45.632675 -111.252332 12 29853ft 438kts
12-Jun-18 08:27 45.742374 -111.184815 1 27334ft 406kts
12-Jun-18 08:28 45.836409 -111.219989 324 24915ft 343kts
12-Jun-18 08:29 45.917070 -111.288493 321 22445ft 327kts
12-Jun-18 08:30 45.992453 -111.357627 322 20001ft 320kts
12-Jun-18 08:31 46.066918 -111.426523 323 17520ft 315kts
12-Jun-18 08:32 46.140304 -111.494702 323 15103ft 310kts
12-Jun-18 08:33 46.208442 -111.555591 326 14152ft 270kts
12-Jun-18 08:34 46.271831 -111.612298 319 13057ft 266kts
12-Jun-18 08:35 46.332252 -111.675778 320 12461ft 269kts
12-Jun-18 08:36 46.392835 -111.737070 320 12004ft 266kts
12-Jun-18 08:37 46.453787 -111.798592 320 11970ft 265kts
12-Jun-18 08:38 46.514773 -111.860229 320 11997ft 268kts
12-Jun-18 08:39 46.572307 -111.918471 320 11980ft 230kts
12-Jun-18 08:40 46.623532 -111.889909 73 11222ft 277kts
12-Jun-18 08:41 46.634768 -111.779477 87 10418ft 272kts
12-Jun-18 08:42 46.626812 -111.675558 124 9374ft 252kts
12-Jun-18 08:43 46.574103 -111.683665 231 7763ft 209kts
12-Jun-18 08:44 46.571968 -111.760956 279 6619ft 186kts
12-Jun-18 08:45 46.582298 -111.829609 280 5690ft 161kts
12-Jun-18 08:46 46.591762 -111.890528 281 4883ft 144kts
12-Jun-18 08:47 46.600421 -111.946052 281 4132ft 139kts
12-Jun-18 08:48 46.606462 -111.985230 259 3885ft 14kts
12-Jun-18 08:49 46.603747 -111.983350 133 3885ft 2kts

Navigation Log

Ident Type
Flight plan parsing failed, navigation log unavailable